Time;durP1;ratioP1;P1;durP2;ratioP2;P2;SDS_P1;SDS_P2;PMS_P1;PMS_P2;Temp;Humidity;BMP_temperature;BMP_pressure;BME280_temperature;BME280_humidity;BME280_pressure;Samples;Min_cycle;Max_cycle;Signal;HPM_P1;HPM_P2
2022/05/16 00:02:13;;;;;;;4.47;2.45;;;21.00;49.40;;;21.28;47.42;100332.84;5068063;28;20063;-75
2022/05/16 00:04:45;;;;;;;3.85;2.33;;;21.10;49.70;;;21.37;47.35;100324.16;5067669;28;20140;-75
2022/05/16 00:07:13;;;;;;;3.03;2.00;;;21.00;49.90;;;21.30;47.00;100325.56;5051439;28;20123;-75
2022/05/16 00:09:40;;;;;;;3.88;2.30;;;21.00;49.60;;;21.13;48.41;100320.53;5030394;28;20051;-74
2022/05/16 00:12:09;;;;;;;3.50;2.17;;;20.90;49.80;;;21.08;48.86;100315.50;5048255;28;20060;-74
2022/05/16 00:14:40;;;;;;;4.63;2.17;;;20.90;49.90;;;21.02;48.83;100315.91;5030995;28;20045;-75
2022/05/16 00:17:07;;;;;;;3.25;2.33;;;20.80;49.90;;;21.06;48.76;100312.06;5047862;28;20271;-74
2022/05/16 00:19:35;;;;;;;3.35;2.10;;;20.80;50.00;;;21.12;48.50;100308.94;5046534;28;20049;-74
2022/05/16 00:22:02;;;;;;;2.72;2.20;;;20.80;49.90;;;21.06;48.82;100312.91;5049045;28;20049;-74
2022/05/16 00:24:29;;;;;;;2.75;2.20;;;20.80;50.00;;;21.15;48.06;100315.91;5051031;28;20055;-74
2022/05/16 00:27:01;;;;;;;4.85;2.60;;;20.70;49.90;;;20.86;50.18;100308.97;5031205;28;20550;-75
2022/05/16 00:29:28;;;;;;;14.57;2.83;;;20.70;50.40;;;20.85;49.81;100311.72;5045049;28;20057;-75
2022/05/16 00:31:55;;;;;;;6.00;2.63;;;20.60;50.30;;;20.81;50.87;100311.06;5047483;28;20114;-75
2022/05/16 00:34:25;;;;;;;4.15;2.60;;;20.90;50.70;;;20.77;50.49;100306.88;5030916;28;20045;-74
2022/05/16 00:36:52;;;;;;;4.70;2.58;;;20.60;50.50;;;20.79;51.23;100313.84;5047416;28;20527;-74
2022/05/16 00:39:21;;;;;;;3.28;2.17;;;20.60;50.80;;;20.77;51.57;100315.75;5030139;28;20152;-74
2022/05/16 00:41:51;;;;;;;6.03;2.38;;;20.50;50.90;;;20.74;51.34;100312.44;5047432;28;20044;-74
2022/05/16 00:44:21;;;;;;;6.53;2.83;;;20.50;50.90;;;20.66;51.60;100315.63;5047213;28;20140;-74
2022/05/16 00:46:48;;;;;;;6.13;2.53;;;20.50;51.10;;;20.59;52.40;100316.97;5046859;28;20049;-74
2022/05/16 00:49:28;;;;;;;3.17;1.90;;;20.40;51.30;;;20.62;52.70;100325.66;5046351;28;20037;-74
2022/05/16 00:52:21;;;;;;;3.75;2.30;;;20.30;51.20;;;20.60;53.56;100322.22;5048390;28;20045;-75
2022/05/16 00:55:00;;;;;;;3.67;2.10;;;20.30;51.40;;;20.48;53.65;100320.38;5048267;28;20040;-75
2022/05/16 00:57:42;;;;;;;3.33;2.30;;;20.30;51.40;;;20.42;53.86;100320.78;5047014;28;20041;-75
2022/05/16 01:00:31;;;;;;;6.25;2.47;;;20.10;51.40;;;20.37;54.46;100313.94;5046257;28;20044;-74
2022/05/16 01:05:56;;;;;;;4.80;2.58;;;19.90;51.70;;;20.28;55.69;100311.88;5034099;28;20052;-75
2022/05/16 01:08:26;;;;;;;5.45;2.60;;;20.00;52.00;;;20.29;55.62;100310.03;5048208;28;20382;-75
2022/05/16 01:11:00;;;;;;;;;;;20.00;52.00;;;20.31;55.28;100313.50;5046633;28;20044;-74
2022/05/16 01:13:31;;;;;;;5.07;2.08;;;19.90;52.00;;;20.24;56.47;100305.88;5046306;28;19920;-75
2022/05/16 01:16:00;;;;;;;4.88;2.50;;;20.00;52.10;;;20.12;56.91;100312.88;5029955;28;20480;-74
2022/05/16 01:18:28;;;;;;;4.45;2.15;;;19.90;52.40;;;20.08;56.88;100321.19;5046234;28;20147;-74
2022/05/16 01:21:37;;;;;;;4.40;2.42;;;19.90;52.30;;;20.11;58.95;100312.97;5045781;28;20060;-74
2022/05/16 01:24:18;;;;;;;3.90;2.43;;;19.90;52.60;;;20.07;57.76;100323.00;5047407;28;20053;-74
2022/05/16 01:26:58;;;;;;;5.22;2.97;;;19.80;52.50;;;20.02;58.66;100325.09;5046336;28;20040;-74
2022/05/16 01:29:25;;;;;;;5.35;2.20;;;19.70;52.40;;;19.98;59.64;100323.59;5046570;28;20044;-74
2022/05/16 01:31:52;;;;;;;5.75;2.67;;;19.80;52.90;;;20.00;59.42;100318.16;5047933;28;20053;-74
2022/05/16 01:34:19;;;;;;;6.78;2.72;;;19.80;52.80;;;19.94;58.69;100306.06;5063722;28;20140;-74
2022/05/16 01:36:46;;;;;;;4.40;2.45;;;19.70;52.70;;;19.88;59.24;100309.06;5059466;28;20040;-74
2022/05/16 01:39:16;;;;;;;5.57;2.55;;;19.80;52.90;;;19.89;58.13;100300.09;5066686;28;20727;-74
2022/05/16 01:41:52;;;;;;;5.10;2.60;;;19.70;52.80;;;19.92;58.35;100297.28;5066082;28;20045;-74
2022/05/16 01:44:19;;;;;;;5.10;2.58;;;19.60;52.70;;;19.83;59.21;100301.38;5048860;28;20050;-75
2022/05/16 01:46:46;;;;;;;5.70;2.80;;;19.60;52.90;;;19.80;60.38;100301.56;5065930;28;20048;-74
2022/05/16 01:49:16;;;;;;;5.78;2.47;;;19.50;53.10;;;19.83;58.88;100298.72;5045007;28;20417;-74
2022/05/16 01:51:43;;;;;;;5.97;2.65;;;19.50;53.00;;;19.75;60.72;100299.22;5047819;28;20040;-75
2022/05/16 01:54:13;;;;;;;5.65;2.33;;;19.50;53.40;;;19.76;60.44;100316.94;5050244;28;20040;-75
2022/05/16 01:56:40;;;;;;;8.40;2.63;;;19.50;53.30;;;19.73;59.00;100295.75;5066262;28;20067;-76
2022/05/16 01:59:07;;;;;;;3.67;2.40;;;19.40;53.10;;;19.68;61.02;100296.06;5064791;28;20409;-76
2022/05/16 02:01:34;;;;;;;4.78;2.20;;;19.40;53.40;;;19.59;61.89;100299.31;5049427;28;20509;-75
2022/05/16 02:04:02;;;;;;;4.30;2.35;;;19.40;53.50;;;19.63;60.86;100294.66;5065369;28;20044;-75
2022/05/16 02:06:29;;;;;;;6.60;2.08;;;19.30;53.50;;;19.57;62.00;100295.88;5049455;28;20523;-75
2022/05/16 02:08:56;;;;;;;3.40;1.88;;;19.30;53.70;;;19.47;62.04;100295.63;5066214;28;20056;-73
2022/05/16 02:11:25;;;;;;;3.85;2.28;;;19.30;53.80;;;19.48;63.25;100293.78;5049886;28;20048;-74
2022/05/16 02:13:52;;;;;;;3.97;1.92;;;19.20;53.90;;;19.51;63.51;100294.47;5066825;28;20028;-74
2022/05/16 02:16:20;;;;;;;3.70;2.45;;;19.20;54.20;;;19.45;64.59;100291.31;5033173;28;20059;-74
2022/05/16 02:18:47;;;;;;;4.38;2.35;;;19.20;54.30;;;19.44;64.88;100292.28;5065327;28;20056;-73
2022/05/16 02:26:47;;;;;;;4.82;2.88;;;19.20;54.50;;;19.40;64.42;100308.47;5067143;28;20057;-75
2022/05/16 02:29:17;;;;;;;5.68;2.33;;;19.10;54.40;;;19.42;64.22;100298.56;5062674;28;20067;-75
2022/05/16 02:31:45;;;;;;;6.78;2.60;;;19.10;54.30;;;19.30;66.76;100299.31;5044802;28;20056;-75
2022/05/16 02:34:13;;;;;;;4.18;2.50;;;19.10;55.20;;;19.23;66.60;100314.00;5029434;28;20049;-75
2022/05/16 02:36:41;;;;;;;4.53;2.47;;;19.00;54.70;;;19.31;66.21;100306.38;5045478;28;20405;-75
2022/05/16 02:39:09;;;;;;;3.83;1.98;;;19.00;54.90;;;19.21;68.64;100313.25;5044988;28;20071;-75
2022/05/16 02:41:36;;;;;;;4.68;2.80;;;19.00;55.10;;;19.25;65.04;100318.25;5045230;28;20153;-75
2022/05/16 02:44:03;;;;;;;3.63;2.10;;;19.00;54.80;;;19.37;67.57;100318.47;5045452;28;20055;-75
2022/05/16 02:46:31;;;;;;;3.58;2.33;;;19.00;55.10;;;19.26;67.48;100319.13;5045527;28;20708;-76
2022/05/16 02:48:59;;;;;;;4.75;2.10;;;19.00;55.10;;;19.17;68.43;100314.34;5044788;28;20036;-75
2022/05/16 02:51:26;;;;;;;4.70;2.50;;;18.90;55.30;;;19.18;68.95;100318.72;5045776;28;20056;-75
2022/05/16 02:53:53;;;;;;;3.45;2.40;;;18.90;55.50;;;19.09;68.81;100321.03;5048651;28;20440;-75
2022/05/16 02:56:20;;;;;;;6.25;2.55;;;19.50;55.80;;;19.06;70.05;100318.56;5050863;28;20051;-75
2022/05/16 02:58:47;;;;;;;3.40;2.40;;;18.80;55.60;;;19.09;70.89;100330.81;5050250;28;20048;-75
2022/05/16 03:01:15;;;;;;;5.47;2.88;;;18.80;55.80;;;19.04;73.51;100327.59;5049034;28;20516;-75
2022/05/16 03:03:42;;;;;;;4.93;2.58;;;18.80;56.10;;;18.94;75.23;100327.25;5048597;28;20092;-75
2022/05/16 03:06:11;;;;;;;5.05;2.38;;;20.10;57.20;;;18.81;77.41;100335.09;5032203;28;20171;-75
2022/05/16 03:08:39;;;;;;;4.38;2.90;;;18.70;56.90;;;18.74;79.76;100331.97;5048542;28;20041;-75
2022/05/16 03:11:07;;;;;;;4.90;2.88;;;18.60;57.10;;;18.66;81.46;100329.75;5048473;28;20789;-75
2022/05/16 03:13:34;;;;;;;5.32;2.50;;;18.60;57.50;;;18.69;80.18;100334.03;5048473;28;20037;-75
2022/05/16 03:16:01;;;;;;;6.65;3.00;;;18.50;57.50;;;18.59;81.08;100333.72;5049557;28;20048;-76
2022/05/16 03:18:31;;;;;;;3.28;2.38;;;18.50;57.80;;;18.61;81.75;100322.97;5049944;28;20460;-75
2022/05/16 03:20:58;;;;;;;3.97;2.50;;;18.40;57.80;;;18.51;84.50;100335.97;5049926;28;20128;-76
2022/05/16 03:23:25;;;;;;;5.97;2.80;;;18.30;58.30;;;18.47;86.28;100324.63;5032195;28;20059;-75
2022/05/16 03:25:53;;;;;;;7.95;3.00;;;18.30;58.70;;;18.38;87.03;100328.69;5049141;28;20045;-75
2022/05/16 03:28:20;;;;;;;8.63;2.53;;;18.30;59.00;;;18.44;85.85;100330.16;5048345;28;20051;-76
2022/05/16 03:30:48;;;;;;;4.40;2.47;;;18.30;58.90;;;18.32;88.46;100334.34;5049498;28;20045;-75
2022/05/16 03:33:15;;;;;;;5.55;2.90;;;18.20;59.30;;;18.29;89.72;100334.53;5048316;28;20122;-75
2022/05/16 03:35:43;;;;;;;2.78;2.42;;;18.10;59.60;;;18.37;85.91;100323.44;5053296;28;20091;-74
2022/05/16 03:40:41;;;;;;;3.90;2.25;;;18.10;59.30;;;18.31;90.70;100327.31;5068601;28;20039;-74
2022/05/16 03:40:58;;;;;;;4.43;2.72;;;18.10;60.10;;;18.30;91.18;100332.75;5067961;28;20052;-74
2022/05/16 03:43:25;;;;;;;3.88;2.83;;;18.10;60.40;;;18.31;89.56;100337.97;5067935;28;20044;-74
2022/05/16 03:45:52;;;;;;;4.45;2.40;;;18.10;60.10;;;18.26;92.35;100334.72;5067824;28;20131;-74
2022/05/16 03:48:20;;;;;;;3.13;2.60;;;18.10;61.00;;;18.20;93.49;100340.41;5065238;28;20041;-74
2022/05/16 03:50:47;;;;;;;5.53;2.55;;;18.00;61.20;;;18.16;95.46;100344.16;5067309;28;20387;-74
2022/05/16 03:53:14;;;;;;;5.03;2.83;;;18.00;61.70;;;18.16;93.70;100346.81;5069384;28;20139;-74
2022/05/16 03:55:41;;;;;;;7.35;2.80;;;18.00;61.70;;;18.16;95.11;100350.34;5068191;28;20520;-74
2022/05/16 03:58:08;;;;;;;4.03;2.65;;;18.00;62.40;;;18.10;96.16;100354.22;5069320;28;20044;-74
2022/05/16 04:00:35;;;;;;;4.00;2.90;;;17.90;62.90;;;18.19;94.55;100357.31;5067384;28;20160;-74
2022/05/16 04:03:03;;;;;;;7.22;3.42;;;17.90;62.80;;;18.11;98.56;100363.06;5068148;28;20051;-74
2022/05/16 04:05:30;;;;;;;5.30;3.60;;;17.90;63.90;;;18.11;99.44;100358.59;5067416;28;20048;-74
2022/05/16 04:07:57;;;;;;;4.85;2.97;;;17.90;64.30;;;18.16;99.73;100365.47;5069184;28;20044;-74
2022/05/16 04:10:24;;;;;;;4.22;3.00;;;17.90;64.90;;;18.16;100.00;100360.13;5068752;28;20553;-74
2022/05/16 04:12:51;;;;;;;4.90;3.00;;;17.90;65.30;;;18.16;100.00;100366.31;5069654;28;20041;-74
2022/05/16 04:15:21;;;;;;;8.13;2.92;;;17.90;66.10;;;18.18;100.00;100369.75;5066731;28;20037;-73
2022/05/16 04:17:49;;;;;;;5.68;3.08;;;17.90;66.70;;;18.16;100.00;100363.66;5060397;28;20077;-74
2022/05/16 04:20:19;;;;;;;5.93;3.15;;;17.90;67.20;;;18.12;100.00;100365.63;5056795;28;20047;-76
2022/05/16 04:22:47;;;;;;;4.65;2.90;;;17.90;68.10;;;18.16;100.00;100362.78;5067446;28;20051;-75
2022/05/16 04:25:17;;;;;;;4.20;3.20;;;17.90;68.50;;;18.25;100.00;100373.78;5063157;28;20048;-75
2022/05/16 04:27:50;;;;;;;7.00;3.35;;;18.00;69.10;;;18.30;100.00;100370.03;5067798;28;20127;-74
2022/05/16 04:30:17;;;;;;;4.25;2.85;;;18.00;69.90;;;18.35;100.00;100375.94;5067068;28;20033;-75
2022/05/16 04:32:44;;;;;;;5.50;3.60;;;18.00;70.20;;;18.35;100.00;100379.47;5068300;28;20488;-76
2022/05/16 04:35:11;;;;;;;5.72;3.00;;;18.10;71.70;;;18.42;100.00;100378.16;5070766;28;20159;-76
2022/05/16 04:37:38;;;;;;;3.90;3.08;;;18.10;71.40;;;18.55;100.00;100378.31;5068609;28;20048;-77
2022/05/16 04:40:09;;;;;;;8.27;3.15;;;18.20;71.00;;;18.62;100.00;100385.97;5070192;28;20068;-77
2022/05/16 04:42:43;;;;;;;4.38;3.08;;;18.20;72.10;;;18.64;100.00;100379.59;5051135;28;20060;-77
2022/05/16 04:45:25;;;;;;;4.65;2.90;;;18.30;72.50;;;18.76;100.00;100387.81;5063759;28;20143;-76
2022/05/16 04:47:58;;;;;;;5.53;3.30;;;18.30;72.70;;;18.77;100.00;100373.56;5070655;28;20053;-76
2022/05/16 04:50:31;;;;;;;5.80;2.90;;;18.40;73.00;;;18.87;100.00;100377.41;5053490;28;20095;-76
2022/05/16 04:53:00;;;;;;;9.02;3.40;;;18.40;73.60;;;18.93;100.00;100377.03;5049619;28;20675;-75
2022/05/16 04:55:48;;;;;;;7.45;3.33;;;18.50;73.50;;;18.98;100.00;100372.31;5047815;28;20037;-76
2022/05/16 04:58:15;;;;;;;5.53;3.55;;;18.60;74.10;;;19.03;100.00;100374.69;5048406;28;20040;-76
2022/05/16 05:01:05;;;;;;;4.25;2.95;;;18.60;74.30;;;19.15;100.00;100373.13;5063374;28;20047;-76
2022/05/16 05:03:32;;;;;;;6.45;3.58;;;18.70;74.60;;;19.18;100.00;100382.75;5050960;28;20465;-77
2022/05/16 05:05:59;;;;;;;8.20;3.67;;;18.80;74.90;;;19.29;100.00;100387.44;5050144;28;20048;-76
2022/05/16 05:08:29;;;;;;;6.22;3.10;;;18.80;74.80;;;19.29;100.00;100382.97;5067202;28;20044;-76
2022/05/16 05:16:28;;;;;;;3.22;2.65;;;19.00;76.00;;;19.39;100.00;100383.25;5053612;28;20573;-77
2022/05/16 05:18:56;;;;;;;4.68;3.30;;;19.00;75.70;;;19.42;100.00;100377.72;5053039;28;20047;-77
2022/05/16 05:21:23;;;;;;;7.20;2.95;;;19.00;76.70;;;19.39;100.00;100373.44;5069051;28;20041;-77
2022/05/16 05:23:52;;;;;;;4.88;3.55;;;19.10;76.80;;;19.43;100.00;100390.09;5067506;28;20056;-77
2022/05/16 05:26:19;;;;;;;4.88;3.33;;;19.10;77.40;;;19.42;100.00;100389.28;5050890;28;20052;-76
2022/05/16 05:28:46;;;;;;;4.05;2.90;;;19.30;77.20;;;19.45;100.00;100395.38;5050546;28;20062;-78
2022/05/16 05:31:16;;;;;;;6.80;3.30;;;19.10;77.30;;;19.51;100.00;100397.66;5050564;28;20763;-76
2022/05/16 05:33:44;;;;;;;6.18;3.40;;;19.10;77.60;;;19.49;100.00;100395.09;5067262;28;20132;-77
2022/05/16 05:36:12;;;;;;;7.28;3.20;;;19.20;77.50;;;19.53;100.00;100401.94;5047677;28;20120;-77
2022/05/16 05:38:39;;;;;;;4.85;3.20;;;19.20;77.60;;;19.51;100.00;100393.19;5049549;28;20056;-77
2022/05/16 05:41:09;;;;;;;5.07;3.13;;;19.20;77.60;;;19.60;100.00;100397.09;5067894;28;20078;-77
2022/05/16 05:43:37;;;;;;;4.05;2.80;;;19.20;77.90;;;19.60;100.00;100409.59;5065295;28;20054;-77
2022/05/16 05:46:05;;;;;;;7.50;3.03;;;19.20;78.10;;;19.59;100.00;100410.50;5066198;28;20049;-77
2022/05/16 05:48:35;;;;;;;4.65;2.83;;;19.20;78.50;;;19.67;100.00;100413.59;5066713;28;20473;-78
2022/05/16 05:51:02;;;;;;;4.75;2.95;;;19.20;78.40;;;19.65;100.00;100418.16;5066288;28;20401;-77
2022/05/16 05:53:29;;;;;;;4.45;3.30;;;19.20;78.30;;;19.69;100.00;100417.00;5050569;28;20501;-76
2022/05/16 05:55:56;;;;;;;5.25;2.78;;;19.30;78.20;;;19.81;100.00;100424.28;5050207;28;20518;-77
2022/05/16 05:58:23;;;;;;;3.47;2.70;;;19.30;77.90;;;19.82;100.00;100422.44;5072136;28;20048;-77
2022/05/16 06:00:50;;;;;;;4.65;2.97;;;19.40;78.40;;;19.89;100.00;100423.78;5057705;28;20130;-77
2022/05/16 06:03:18;;;;;;;5.15;2.53;;;19.50;78.50;;;19.96;100.00;100430.47;5067237;28;20052;-76
2022/05/16 06:05:49;;;;;;;5.55;2.78;;;19.50;78.70;;;20.06;100.00;100436.13;5055887;28;20053;-76
2022/05/16 06:08:16;;;;;;;4.60;2.53;;;19.60;79.40;;;20.06;100.00;100433.47;5059175;28;20052;-77
2022/05/16 06:10:43;;;;;;;7.60;2.88;;;19.60;79.40;;;20.18;100.00;100438.97;5050696;28;20043;-77
2022/05/16 06:13:10;;;;;;;8.23;3.13;;;19.70;79.30;;;20.29;100.00;100439.13;5068416;28;20047;-77
2022/05/16 06:15:40;;;;;;;5.15;3.13;;;19.80;78.80;;;20.37;100.00;100436.84;5065702;28;20040;-77
2022/05/16 06:18:08;;;;;;;6.30;3.22;;;19.90;79.00;;;20.32;100.00;100443.44;5052607;28;20082;-78
2022/05/16 06:20:35;;;;;;;6.38;3.55;;;19.90;79.50;;;20.26;100.00;100447.34;5067067;28;20048;-75
2022/05/16 06:23:02;;;;;;;4.65;3.53;;;20.00;79.90;;;20.24;100.00;100452.78;5066672;28;20041;-75
2022/05/16 06:25:33;;;;;;;5.00;2.92;;;20.00;80.20;;;20.36;100.00;100459.16;5069271;28;20107;-77
2022/05/16 06:28:15;;;;;;;9.52;2.92;;;20.10;80.60;;;20.48;100.00;100457.53;5076336;28;20560;-78
2022/05/16 06:30:45;;;;;;;5.43;2.67;;;20.00;80.20;;;20.57;99.78;100465.91;5041201;28;20112;-77
2022/05/16 06:33:13;;;;;;;;;;;20.20;79.60;;;20.64;99.85;100465.41;5041725;28;20072;-79
2022/05/16 06:35:41;;;;;;;3.42;2.70;;;20.20;79.70;;;20.68;98.96;100458.03;5061421;28;19931;-78
2022/05/16 06:38:12;;;;;;;4.82;2.72;;;20.20;79.30;;;20.75;97.57;100464.69;5078761;28;20431;-78
2022/05/16 06:40:43;;;;;;;4.15;2.83;;;20.30;79.20;;;20.78;98.67;100461.84;5059847;28;20060;-78
2022/05/16 06:43:10;;;;;;;8.25;3.22;;;20.40;79.50;;;20.83;98.44;100470.44;5060381;28;20497;-77
2022/05/16 06:45:37;;;;;;;9.27;2.85;;;20.40;79.40;;;20.92;99.36;100473.47;5063784;28;20045;-78
2022/05/16 06:48:05;;;;;;;21.60;3.58;;;20.40;79.90;;;20.90;100.00;100478.91;5055496;28;20047;-78
2022/05/16 06:50:36;;;;;;;13.10;3.58;;;20.50;80.20;;;21.05;99.34;100484.22;5067773;28;20333;-78
2022/05/16 06:53:03;;;;;;;9.95;2.95;;;20.60;79.80;;;21.08;100.00;100468.81;5068639;28;20060;-78
2022/05/16 06:55:31;;;;;;;5.28;2.65;;;20.60;80.00;;;21.20;98.81;100475.16;5063254;28;20128;-78
2022/05/16 06:57:59;;;;;;;9.25;2.70;;;20.70;79.80;;;21.31;99.53;100476.22;5063866;28;20044;-78
2022/05/16 07:00:26;;;;;;;8.75;3.13;;;20.80;80.30;;;21.36;100.00;100483.00;5063086;28;20061;-78
2022/05/16 07:02:54;;;;;;;3.75;2.95;;;20.90;80.70;;;21.42;99.86;100479.03;5062701;28;20110;-77
2022/05/16 07:05:41;;;;;;;6.97;3.42;;;21.00;80.60;;;21.55;100.00;100484.44;5079765;28;20422;-78
2022/05/16 07:08:08;;;;;;;5.68;3.08;;;21.00;80.90;;;21.59;100.00;100485.06;5062599;28;20127;-78
2022/05/16 07:10:36;;;;;;;8.50;3.50;;;21.10;81.10;;;21.65;100.00;100480.19;5080536;28;20052;-78
2022/05/16 07:13:03;;;;;;;8.90;3.42;;;21.20;81.80;;;21.71;100.00;100499.47;5062561;28;20058;-78
2022/05/16 07:15:30;;;;;;;9.50;3.30;;;21.20;82.10;;;21.74;100.00;100486.72;5053004;28;20056;-78
2022/05/16 07:17:59;;;;;;;6.10;3.80;;;21.30;81.70;;;21.88;100.00;100487.56;5050614;28;20039;-78
2022/05/16 07:20:26;;;;;;;6.72;3.92;;;21.40;81.90;;;22.01;100.00;100488.44;5066324;28;20074;-78
2022/05/16 07:22:54;;;;;;;7.18;3.22;;;21.50;82.00;;;22.14;100.00;100485.72;5052801;28;20041;-78
2022/05/16 07:25:25;;;;;;;8.50;3.65;;;21.60;81.70;;;22.21;100.00;100481.66;5066801;28;20056;-78
2022/05/16 07:28:02;;;;;;;5.93;3.97;;;21.90;82.00;;;22.28;99.72;100483.91;5067865;28;20052;-78
2022/05/16 07:30:35;;;;;;;5.07;4.10;;;21.80;81.70;;;22.39;100.00;100484.00;5051936;28;20137;-78
2022/05/16 07:33:03;;;;;;;7.95;3.78;;;21.90;82.00;;;22.41;99.61;100487.41;5050862;28;20473;-78
2022/05/16 07:35:33;;;;;;;6.93;4.15;;;21.90;81.70;;;22.52;99.98;100492.88;5063604;28;20072;-78
2022/05/16 07:38:00;;;;;;;9.52;3.72;;;22.00;82.10;;;22.58;100.00;100499.63;5030672;28;20049;-77
2022/05/16 07:40:34;;;;;;;4.22;3.60;;;22.00;82.30;;;22.72;100.00;100489.72;5019719;28;20049;-77
2022/05/16 07:43:01;;;;;;;5.15;3.55;;;22.20;82.60;;;22.78;100.00;100490.09;5054132;28;20107;-77
2022/05/16 07:45:29;;;;;;;10.98;3.97;;;22.30;82.70;;;22.90;100.00;100498.22;5051348;28;20045;-76
2022/05/16 07:48:00;;;;;;;8.27;4.50;;;22.40;82.60;;;22.95;99.74;100502.28;5066444;28;20068;-76
2022/05/16 07:50:27;;;;;;;4.50;3.53;;;22.40;82.40;;;23.09;99.63;100495.88;5067939;28;20060;-78
2022/05/16 07:52:54;;;;;;;11.02;4.30;;;22.50;82.60;;;23.22;98.29;100508.38;5073689;28;20059;-79
2022/05/16 07:55:24;;;;;;;6.03;3.25;;;22.70;82.40;;;23.31;94.96;100512.22;5072336;28;20048;-77
2022/05/16 07:57:52;;;;;;;4.22;3.72;;;22.80;81.50;;;23.39;94.52;100498.22;5070885;28;20445;-78
2022/05/16 08:00:22;;;;;;;5.07;3.70;;;22.90;81.30;;;23.51;94.91;100506.19;5052800;28;20064;-77
2022/05/16 08:02:51;;;;;;;7.90;3.92;;;23.00;81.50;;;23.61;94.77;100509.03;5070897;28;20098;-77
2022/05/16 08:05:20;;;;;;;5.00;3.92;;;23.10;81.50;;;23.82;93.73;100505.63;5065933;28;20040;-77
2022/05/16 08:10:39;;;;;;;7.13;4.40;;;23.30;80.70;;;23.88;91.03;100513.25;5049683;28;20430;-77
2022/05/16 08:13:10;;;;;;;8.60;3.83;;;23.40;80.60;;;23.84;90.83;100505.53;5035565;28;20040;-77
2022/05/16 08:15:40;;;;;;;6.40;3.58;;;23.40;80.40;;;23.82;90.60;100505.63;5034015;28;20091;-78
2022/05/16 08:18:10;;;;;;;4.63;3.83;;;23.40;80.20;;;23.82;91.33;100510.19;5033971;28;20049;-77
2022/05/16 08:20:39;;;;;;;9.57;4.88;;;23.40;80.30;;;23.84;92.15;100522.50;5034626;28;20467;-76
2022/05/16 08:23:28;;;;;;;6.53;4.32;;;23.40;80.60;;;23.83;91.56;100518.09;5054953;28;20055;-77
2022/05/16 08:25:58;;;;;;;6.22;4.38;;;23.40;80.30;;;23.92;92.29;100517.38;5052787;28;20048;-76
2022/05/16 08:28:25;;;;;;;5.68;4.13;;;23.40;80.80;;;23.86;92.53;100520.53;5038660;28;20048;-76
2022/05/16 08:30:53;;;;;;;5.22;4.43;;;23.50;80.70;;;23.87;92.13;100519.56;5068963;28;20044;-77
2022/05/16 08:33:20;;;;;;;5.50;3.90;;;23.50;80.60;;;23.88;93.73;100532.03;5052551;28;20076;-77
2022/05/16 08:39:52;;;;;;;7.68;4.10;;;23.50;80.90;;;23.85;94.72;100531.41;5069762;28;20170;-77
2022/05/16 08:41:29;;;;;;;7.13;4.30;;;23.40;81.60;;;23.81;94.42;100538.84;5035945;28;20045;-79
2022/05/16 08:44:43;;;;;;;6.55;3.80;;;23.50;81.00;;;23.84;95.37;100537.78;5048886;28;20087;-76
2022/05/16 08:47:27;;;;;;;10.00;4.47;;;23.40;81.30;;;23.85;96.57;100544.84;5049515;28;20114;-77
2022/05/16 08:50:03;;;;;;;8.82;4.72;;;23.40;81.70;;;23.87;96.11;100545.59;5047656;28;20076;-77
2022/05/16 08:52:42;;;;;;;11.43;4.13;;;23.40;81.60;;;23.96;94.82;100544.00;5045793;28;20056;-78
2022/05/16 08:55:40;;;;;;;10.17;4.20;;;23.40;81.50;;;23.98;95.93;100548.31;5044373;28;20045;-78
2022/05/16 08:58:29;;;;;;;21.25;4.60;;;23.50;81.90;;;24.11;91.57;100542.84;5019334;28;20068;-79
2022/05/16 09:01:05;;;;;;;11.07;4.55;;;23.50;81.10;;;24.14;90.75;100549.81;5053361;28;20133;-78
2022/05/16 09:04:02;;;;;;;8.70;3.78;;;23.50;80.90;;;24.32;89.35;100556.41;5053801;28;20051;-79
2022/05/16 09:07:05;;;;;;;7.05;4.40;;;23.70;81.20;;;24.35;88.72;100548.09;5063826;28;20590;-79
2022/05/16 09:10:59;;;;;;;10.50;4.20;;;23.80;80.60;;;24.47;84.16;100548.13;5081789;28;20070;-77
2022/05/16 09:13:46;;;;;;;8.05;4.60;;;23.90;79.60;;;24.69;80.51;100549.06;5063960;28;20060;-76
2022/05/16 09:16:40;;;;;;;7.97;4.78;;;24.10;79.10;;;24.71;74.61;100556.03;5078786;28;20071;-78
2022/05/16 09:19:29;;;;;;;6.30;3.78;;;24.20;77.60;;;24.80;79.87;100542.81;5073929;28;20048;-80
2022/05/16 09:22:18;;;;;;;11.13;3.80;;;24.20;78.80;;;25.02;79.89;100541.91;5073650;28;20075;-79
2022/05/16 09:24:58;;;;;;;5.53;3.60;;;24.30;79.10;;;25.14;68.58;100546.28;5073853;28;20544;-79
2022/05/16 09:30:28;;;;;;;8.02;3.72;;;24.60;75.70;;;25.29;67.44;100548.69;5065522;28;19924;-78
2022/05/16 09:33:01;;;;;;;7.28;3.75;;;24.70;76.00;;;25.37;75.28;100556.13;5063441;28;20371;-79
2022/05/16 09:35:49;;;;;;;9.90;4.53;;;24.70;77.70;;;25.16;73.54;100573.94;5080643;28;20075;-78
2022/05/16 09:38:18;;;;;;;6.57;3.63;;;24.70;77.00;;;25.22;73.32;100563.66;5082301;28;20049;-77
2022/05/16 09:41:14;;;;;;;13.88;4.43;;;24.70;76.90;;;25.41;72.00;100565.66;5081149;28;20055;-77
2022/05/16 09:44:06;;;;;;;8.55;4.15;;;24.80;76.90;;;25.49;69.43;100555.13;5079717;28;20078;-77
2022/05/16 09:47:12;;;;;;;5.93;3.90;;;24.90;76.30;;;25.49;70.95;100573.97;5051918;28;20033;-78
2022/05/16 09:49:40;;;;;;;7.55;3.95;;;25.00;76.40;;;25.54;71.79;100571.75;5046935;28;20115;-78
2022/05/16 09:52:19;;;;;;;6.80;4.10;;;25.00;76.50;;;25.66;74.04;100569.00;5061561;28;20431;-79
2022/05/16 09:55:06;;;;;;;7.40;4.90;;;25.10;77.30;;;25.76;74.20;100578.84;5057357;28;20493;-78
2022/05/16 09:57:49;;;;;;;7.30;3.95;;;25.20;77.30;;;25.83;73.85;100578.31;5041261;28;20759;-78
2022/05/16 10:00:42;;;;;;;9.75;4.10;;;25.30;77.30;;;26.00;73.63;100585.84;5063490;28;20123;-77
2022/05/16 10:03:44;;;;;;;6.93;3.70;;;25.40;77.50;;;25.95;70.77;100579.13;5069343;28;20044;-76
2022/05/16 10:06:34;;;;;;;6.95;3.92;;;25.40;76.50;;;25.93;67.39;100584.63;5070834;28;20040;-77
2022/05/16 10:09:09;;;;;;;9.73;3.33;;;25.40;76.00;;;26.00;64.76;100580.44;5072293;28;20091;-77
2022/05/16 10:11:38;;;;;;;7.18;3.90;;;25.50;75.10;;;26.22;63.23;100575.03;5074250;28;20078;-78
2022/05/16 10:14:10;;;;;;;5.65;3.17;;;25.60;74.90;;;26.25;61.12;100599.91;5071890;28;20036;-77
2022/05/16 10:16:48;;;;;;;6.22;3.28;;;25.70;74.20;;;26.09;57.74;100594.97;5067958;28;20042;-77
2022/05/16 10:19:21;;;;;;;8.75;3.55;;;25.80;72.70;;;26.18;55.87;100599.56;5049323;28;20051;-76
2022/05/16 10:21:57;;;;;;;10.48;3.40;;;25.80;72.20;;;26.38;55.13;100596.13;5034653;28;20072;-78
2022/05/16 10:24:31;;;;;;;11.43;3.00;;;25.90;72.10;;;26.46;52.14;100612.50;5029292;28;20595;-76
2022/05/16 10:27:06;;;;;;;8.55;3.25;;;25.90;70.90;;;26.36;51.43;100622.38;5045583;28;20131;-76
2022/05/16 10:29:37;;;;;;;7.80;2.67;;;25.90;70.50;;;26.28;51.70;100594.22;5029890;28;20087;-76
2022/05/16 10:35:16;;;;;;;5.20;2.72;;;25.90;70.60;;;26.45;52.53;100613.47;5049491;28;20107;-76
2022/05/16 10:37:49;;;;;;;8.63;2.88;;;25.90;70.60;;;26.46;53.51;100626.84;5033859;28;20383;-77
2022/05/16 10:40:37;;;;;;;7.68;2.53;;;25.90;71.00;;;26.35;51.95;100620.69;5033475;28;20045;-77
2022/05/16 10:43:45;;;;;;;9.55;3.15;;;26.00;70.10;;;26.69;52.69;100626.63;5034363;28;20431;-78
2022/05/16 10:46:25;;;;;;;10.88;2.70;;;26.00;70.80;;;26.56;55.47;100645.78;5032097;28;20059;-79
2022/05/16 10:49:21;;;;;;;12.55;3.08;;;26.10;71.50;;;26.26;57.32;100641.22;5033305;28;20087;-77
2022/05/16 10:52:15;;;;;;;7.20;2.58;;;26.00;71.60;;;26.02;60.73;100659.34;5034311;28;20045;-77
2022/05/16 10:54:43;;;;;;;9.80;2.60;;;25.80;72.10;;;25.80;61.80;100654.03;5067766;28;20118;-79
2022/05/16 10:57:15;;;;;;;12.55;3.13;;;25.60;72.40;;;25.91;62.24;100652.16;5032291;28;20115;-77
2022/05/16 11:00:10;;;;;;;9.85;2.70;;;25.60;72.80;;;25.74;62.24;100667.06;5035317;28;20047;-78